DO2KZW-13 Weather Reports


Display with metric or nautical units.
time (UTC)temp
F
wind
direction
speed
MPH
gust
MPH
rain 1hr
in
rain 24hr
in
rain mn
in
humidity
%
barometer
mb
20210412000249 40 360 0.0 0.0 0.00 0.00 0.00 59 1015.4
20210411230259 43 360 0.0 0.0 0.00 0.00 0.00 56 1014.4
20210411220528 46 360 0.0 0.0 0.00 0.00 0.00 54 1013.4
20210411210245 48 360 0.0 0.0 0.00 0.00 0.00 53 1012.4
20210411200243 52 360 0.0 0.0 0.00 0.00 0.00 52 1011.4
20210411190316 54 360 0.0 0.0 0.00 0.00 0.00 49 1011.4
20210411180256 56 360 0.0 0.0 0.00 0.00 0.00 47 1010.4
20210411170241 57 360 0.0 0.0 0.00 0.00 0.00 44 1009.4
20210411160243 60 360 0.0 0.0 0.00 0.00 0.00 43 1008.4
20210411150249 66 360 0.0 0.0 0.00 0.00 0.00 33 1006.4
20210411135823 68 360 0.0 0.0 0.00 0.00 0.00 24 1006.4
20210411125812 70 360 0.0 0.0 0.00 0.00 0.00 24 1006.4
20210411115849 69 360 0.0 0.0 0.00 0.00 0.00 25 1006.4
20210411105741 67 360 0.0 0.0 0.00 0.00 0.00 27 1007.4
20210411095718 68 360 0.0 0.0 0.00 0.00 0.00 29 1007.4
20210411085832 63 360 0.0 0.0 0.00 0.00 0.00 32 1007.4
20210411075758 62 360 0.0 0.0 0.00 0.00 0.00 34 1007.4
20210411065858 53 360 0.0 0.0 0.00 0.00 0.00 42 1007.4
20210411055912 51 360 0.0 0.0 0.00 0.00 0.00 40 1007.4
20210411050352 51 360 0.0 0.0 0.00 0.00 0.00 40 1007.4
20210411040324 51 360 0.0 0.0 0.00 0.00 0.00 39 1007.4
20210411025933 51 360 0.0 0.0 0.00 0.00 0.00 38 1007.4
20210411020133 51 360 0.0 0.0 0.00 0.00 0.00 37 1008.4
20210411010129 53 360 0.0 0.0 0.00 0.00 0.00 36 1008.4